East Hebron, New Hampshire
Current Conditions -  °F | °C
As of 5:15 AM on Saturday 29 Nov 2014 (Local Time) from K1P1 Reporting Station
Clear Clear  
Wind Chill: 10°   Ceiling: Unl
Heat Index: 10°   Visibility: 10mi
Dew Point: 10°   Wind: 0mph
Humidity: 100%   Direction: NA
Pressure: 30.22"   Gusts: NA
Location:  43.69°N, 71.77°W
Report Text: K1P1 291015Z AUTO 00000KT 10SM CLR M12/M12 A3022 RMK AO2 T11251125
Loading
Personal Weather Stations






























Interactive Weather Map New forecast layout! Learn more

10-Day Weather Forecast

Advertisements
Track Severe Weather on mobile